KCDN/CDN METAR and TAF weather

Enter ICAO airport designator
Station Type Date Time Source
KCDN METAR 2019/07/20 04:55 UTC NOAA

KCDN 200455Z AUTO 00000KT 10SM FEW049 25/22 A3006 RMK AO2 LTG DSNT NW


Station Type Date Time Source
KCDN Decoded METAR 2019/07/20 04:55 UTC NOAA

Station name not available
Jul 20, 2019 - 12:55 AM EDT / 2019.07.20 0455 UTC
Wind: Calm:0
Visibility: 10 mile(s):0
Sky conditions: mostly clear
Weather: Lightning observed
Temperature: 77 F (25 C)
Dew Point: 71 F (22 C)
Relative Humidity: 83%
Pressure (altimeter): 30.06 in. Hg (1017 hPa)
ob: KCDN 200455Z AUTO 00000KT 10SM FEW049 25/22 A3006 RMK AO2 LTG DSNT NW
cycle: 5

Station Type Date Time Source
KCDN TAF UTC NOAA

Error!

Example: see airport list